Time;durP1;ratioP1;P1;durP2;ratioP2;P2;SDS_P1;SDS_P2;PMS_P1;PMS_P2;Temp;Humidity;BMP_temperature;BMP_pressure;BME280_temperature;BME280_humidity;BME280_pressure;Samples;Min_cycle;Max_cycle;Signal;HPM_P1;HPM_P2
2022/05/30 00:00:29;;;;;;;2.83;1.10;;;;;;;;;;4939380;29;20047;-69
2022/05/30 00:02:56;;;;;;;3.00;1.00;;;;;;;;;;4939305;29;20058;-69
2022/05/30 00:05:23;;;;;;;2.10;0.80;;;;;;;;;;4939836;29;20099;-70
2022/05/30 00:07:50;;;;;;;1.95;0.75;;;;;;;;;;4939390;29;20050;-69
2022/05/30 00:10:16;;;;;;;1.67;0.90;;;;;;;;;;4939184;29;20047;-70
2022/05/30 00:12:43;;;;;;;2.63;1.23;;;;;;;;;;4939144;29;20039;-70
2022/05/30 00:15:11;;;;;;;2.40;0.95;;;;;;;;;;4938755;29;20039;-70
2022/05/30 00:17:38;;;;;;;3.78;1.00;;;;;;;;;;4938844;29;20099;-70
2022/05/30 00:20:05;;;;;;;2.55;1.13;;;;;;;;;;4938770;29;20060;-69
2022/05/30 00:22:31;;;;;;;3.08;1.20;;;;;;;;;;4938937;29;20050;-69
2022/05/30 00:24:57;;;;;;;2.45;0.80;;;;;;;;;;4938938;29;20040;-69
2022/05/30 00:27:23;;;;;;;2.47;1.13;;;;;;;;;;4939107;29;20039;-69
2022/05/30 00:29:49;;;;;;;4.63;1.13;;;;;;;;;;4938820;29;20044;-69
2022/05/30 00:32:15;;;;;;;3.53;0.90;;;;;;;;;;4921842;29;20431;-69
2022/05/30 00:34:41;;;;;;;2.70;1.15;;;;;;;;;;4938604;29;20063;-69
2022/05/30 00:37:08;;;;;;;11.15;1.60;;;;;;;;;;4939037;29;20044;-69
2022/05/30 00:39:34;;;;;;;4.00;1.00;;;;;;;;;;4939160;29;20047;-69
2022/05/30 00:42:14;;;;;;;5.43;0.93;;;;;;;;;;4938864;29;20189;-69
2022/05/30 00:44:42;;;;;;;2.00;0.90;;;;;;;;;;4939180;29;20048;-69
2022/05/30 00:47:08;;;;;;;2.78;1.27;;;;;;;;;;4938466;29;20040;-69
2022/05/30 00:49:35;;;;;;;2.58;1.05;;;;;;;;;;4938620;29;20074;-69
2022/05/30 00:52:05;;;;;;;2.92;0.82;;;;;;;;;;4938372;29;20051;-69
2022/05/30 00:54:59;;;;;;;1.40;0.75;;;;;;;;;;4938374;29;20047;-69
2022/05/30 00:57:26;;;;;;;3.28;1.02;;;;;;;;;;4935767;29;20103;-69
2022/05/30 00:59:56;;;;;;;5.32;0.98;;;;;;;;;;4937933;29;20052;-69
2022/05/30 01:02:24;;;;;;;2.40;1.13;;;;;;;;;;4938216;29;20048;-69
2022/05/30 01:07:36;;;;;;;1.70;0.98;;;;;;;;;;4937657;29;20099;-69
2022/05/30 01:10:03;;;;;;;3.92;1.23;;;;;;;;;;4938150;29;20200;-69
2022/05/30 01:12:43;;;;;;;2.38;1.00;;;;;;;;;;4938018;29;20044;-69
2022/05/30 01:15:13;;;;;;;3.80;1.27;;;;;;;;;;4937891;29;20476;-69
2022/05/30 01:18:00;;;;;;;5.28;1.40;;;;;;;;;;4937829;29;20071;-69
2022/05/30 01:20:49;;;;;;;2.03;1.10;;;;;;;;;;4937496;29;20520;-69
2022/05/30 01:23:27;;;;;;;2.53;1.00;;;;;;;;;;4937769;29;20055;-69
2022/05/30 01:26:06;;;;;;;2.47;1.08;;;;;;;;;;4937593;29;20035;-69
2022/05/30 01:28:36;;;;;;;2.15;1.17;;;;;;;;;;4938022;29;20051;-69
2022/05/30 01:31:02;;;;;;;6.00;1.07;;;;;;;;;;4937838;29;20036;-69
2022/05/30 01:33:28;;;;;;;1.88;0.80;;;;;;;;;;4937300;29;20067;-69
2022/05/30 01:35:54;;;;;;;1.50;1.00;;;;;;;;;;4937406;29;20075;-69
2022/05/30 01:38:23;;;;;;;3.33;1.08;;;;;;;;;;4937590;29;20056;-69
2022/05/30 01:40:49;;;;;;;2.22;0.90;;;;;;;;;;4937548;29;20043;-69
2022/05/30 01:43:16;;;;;;;2.42;1.13;;;;;;;;;;4937595;29;20039;-69
2022/05/30 01:45:42;;;;;;;1.48;1.00;;;;;;;;;;4937720;29;20040;-69
2022/05/30 01:48:08;;;;;;;1.50;0.80;;;;;;;;;;4937291;29;20119;-69
2022/05/30 01:50:35;;;;;;;2.78;0.90;;;;;;;;;;4937182;29;20050;-69
2022/05/30 01:53:01;;;;;;;1.92;1.20;;;;;;;;;;4920304;29;20407;-69
2022/05/30 01:55:27;;;;;;;2.28;1.27;;;;;;;;;;4937421;29;20040;-69
2022/05/30 01:57:53;;;;;;;3.60;1.17;;;;;;;;;;4937645;29;20491;-69
2022/05/30 02:00:20;;;;;;;3.97;1.38;;;;;;;;;;4937071;29;20503;-69
2022/05/30 02:02:47;;;;;;;3.50;1.00;;;;;;;;;;4937341;29;20051;-69
2022/05/30 02:05:13;;;;;;;3.08;1.00;;;;;;;;;;4937869;29;20067;-69
2022/05/30 02:07:39;;;;;;;2.55;1.00;;;;;;;;;;4937235;29;20052;-69
2022/05/30 02:10:06;;;;;;;2.83;0.90;;;;;;;;;;4937275;29;20053;-69
2022/05/30 02:12:32;;;;;;;1.40;1.27;;;;;;;;;;4936941;29;20048;-69
2022/05/30 02:14:59;;;;;;;1.67;0.88;;;;;;;;;;4937509;29;20035;-69
2022/05/30 02:17:25;;;;;;;2.75;1.02;;;;;;;;;;4937189;29;20039;-69
2022/05/30 02:19:51;;;;;;;3.30;1.05;;;;;;;;;;4937104;29;20064;-69
2022/05/30 02:22:18;;;;;;;1.13;0.80;;;;;;;;;;4937211;29;20126;-69
2022/05/30 02:24:45;;;;;;;2.47;1.10;;;;;;;;;;4937412;29;20494;-69
2022/05/30 02:27:13;;;;;;;3.00;1.08;;;;;;;;;;4937344;29;20052;-69
2022/05/30 02:29:40;;;;;;;1.67;0.90;;;;;;;;;;4937509;29;20051;-69
2022/05/30 02:32:06;;;;;;;3.88;1.25;;;;;;;;;;4937341;29;20040;-69
2022/05/30 02:37:17;;;;;;;1.73;1.00;;;;;;;;;;4936800;29;20043;-69
2022/05/30 02:39:43;;;;;;;2.10;1.23;;;;;;;;;;4936943;29;20139;-69
2022/05/30 02:42:10;;;;;;;1.52;1.10;;;;;;;;;;4937262;29;20043;-69
2022/05/30 02:44:36;;;;;;;3.13;1.10;;;;;;;;;;4937266;29;20044;-69
2022/05/30 02:47:03;;;;;;;2.17;1.20;;;;;;;;;;4937190;29;20039;-69
2022/05/30 02:49:29;;;;;;;2.58;1.10;;;;;;;;;;4936938;29;20051;-69
2022/05/30 02:51:55;;;;;;;1.38;1.00;;;;;;;;;;4937220;29;20032;-69
2022/05/30 02:54:22;;;;;;;3.65;0.95;;;;;;;;;;4937164;29;20105;-69
2022/05/30 02:56:52;;;;;;;2.38;1.13;;;;;;;;;;4936875;29;20040;-69
2022/05/30 02:59:19;;;;;;;1.65;0.90;;;;;;;;;;4936827;29;20052;-69
2022/05/30 03:01:45;;;;;;;3.22;1.20;;;;;;;;;;4940993;29;20054;-69
2022/05/30 03:04:11;;;;;;;2.00;1.00;;;;;;;;;;4940565;29;20052;-69
2022/05/30 03:06:38;;;;;;;3.13;1.20;;;;;;;;;;4940679;29;20075;-69
2022/05/30 03:09:05;;;;;;;1.75;0.85;;;;;;;;;;4940692;29;20052;-69
2022/05/30 03:11:31;;;;;;;1.33;0.90;;;;;;;;;;4940916;29;20040;-69
2022/05/30 03:13:58;;;;;;;2.67;1.08;;;;;;;;;;4940241;29;20043;-69
2022/05/30 03:16:24;;;;;;;2.97;1.10;;;;;;;;;;4940767;29;20036;-69
2022/05/30 03:18:50;;;;;;;4.03;1.33;;;;;;;;;;4940010;29;20058;-69
2022/05/30 03:21:16;;;;;;;2.40;1.00;;;;;;;;;;4939820;29;20562;-69
2022/05/30 03:23:43;;;;;;;2.97;1.00;;;;;;;;;;4940158;29;20221;-69
2022/05/30 03:26:09;;;;;;;1.73;1.00;;;;;;;;;;4940154;29;20585;-69
2022/05/30 03:28:35;;;;;;;2.08;1.10;;;;;;;;;;4939940;29;20055;-69
2022/05/30 03:31:02;;;;;;;3.80;1.40;;;;;;;;;;4939793;29;20032;-69
2022/05/30 03:33:28;;;;;;;5.97;1.10;;;;;;;;;;4939707;29;20044;-69
2022/05/30 03:35:55;;;;;;;2.95;1.10;;;;;;;;;;4939636;29;20040;-69
2022/05/30 03:38:21;;;;;;;5.55;1.20;;;;;;;;;;4939728;29;20058;-69
2022/05/30 03:40:47;;;;;;;2.67;1.15;;;;;;;;;;4939559;29;20122;-69
2022/05/30 03:43:13;;;;;;;2.88;1.10;;;;;;;;;;4939967;29;20130;-69
2022/05/30 03:45:41;;;;;;;2.47;1.10;;;;;;;;;;4939926;29;20098;-69
2022/05/30 03:48:08;;;;;;;2.42;1.05;;;;;;;;;;4938747;29;20071;-69
2022/05/30 03:50:35;;;;;;;2.38;0.93;;;;;;;;;;4938252;29;20043;-69
2022/05/30 03:53:05;;;;;;;2.78;1.10;;;;;;;;;;4933421;29;20040;-69
2022/05/30 03:55:32;;;;;;;1.88;0.85;;;;;;;;;;4933612;29;20067;-69
2022/05/30 03:57:58;;;;;;;3.50;1.00;;;;;;;;;;4934980;29;20058;-69
2022/05/30 04:00:25;;;;;;;1.50;1.00;;;;;;;;;;4936850;29;20055;-70
2022/05/30 04:02:51;;;;;;;2.63;1.05;;;;;;;;;;4928207;29;20040;-70
2022/05/30 04:05:18;;;;;;;3.10;1.20;;;;;;;;;;4929869;29;20040;-70
2022/05/30 04:07:44;;;;;;;4.88;1.50;;;;;;;;;;4937385;29;20067;-69
2022/05/30 04:10:10;;;;;;;2.90;1.40;;;;;;;;;;4938503;29;20151;-69
2022/05/30 04:12:37;;;;;;;2.67;1.23;;;;;;;;;;4938354;29;20058;-69
2022/05/30 04:15:05;;;;;;;1.70;1.00;;;;;;;;;;4939117;29;20039;-69
2022/05/30 04:17:33;;;;;;;4.82;1.45;;;;;;;;;;4937807;29;20530;-69
2022/05/30 04:19:59;;;;;;;2.65;1.10;;;;;;;;;;4937459;29;20079;-69
2022/05/30 04:22:25;;;;;;;4.05;1.30;;;;;;;;;;4935299;29;20047;-69
2022/05/30 04:24:52;;;;;;;6.68;2.70;;;;;;;;;;4938092;29;20122;-69
2022/05/30 04:27:18;;;;;;;3.03;1.60;;;;;;;;;;4938636;29;20143;-69
2022/05/30 04:29:44;;;;;;;3.92;1.70;;;;;;;;;;4934372;29;20133;-69
2022/05/30 04:32:12;;;;;;;2.78;1.52;;;;;;;;;;4933798;29;20043;-69
2022/05/30 04:34:38;;;;;;;4.40;1.23;;;;;;;;;;4938689;29;20044;-69
2022/05/30 04:37:05;;;;;;;2.55;1.10;;;;;;;;;;4939038;29;20039;-69
2022/05/30 04:39:32;;;;;;;3.45;1.10;;;;;;;;;;4938972;29;20047;-70
2022/05/30 04:41:59;;;;;;;2.65;1.30;;;;;;;;;;4938385;29;20050;-69
2022/05/30 04:44:25;;;;;;;2.80;1.30;;;;;;;;;;4938269;29;20573;-69
2022/05/30 04:46:55;;;;;;;2.13;0.95;;;;;;;;;;4938272;29;20140;-69
2022/05/30 04:49:21;;;;;;;6.15;1.13;;;;;;;;;;4938392;29;20052;-69
2022/05/30 04:51:47;;;;;;;5.78;1.10;;;;;;;;;;4938414;29;20043;-69
2022/05/30 04:54:13;;;;;;;2.25;1.15;;;;;;;;;;4938416;29;20043;-69
2022/05/30 04:56:40;;;;;;;6.38;1.30;;;;;;;;;;4938054;29;20039;-69
2022/05/30 04:59:07;;;;;;;3.90;1.30;;;;;;;;;;4937625;29;20058;-69
2022/05/30 05:01:33;;;;;;;3.75;1.00;;;;;;;;;;4938298;29;20123;-69
2022/05/30 05:03:59;;;;;;;11.38;1.30;;;;;;;;;;4937774;29;20044;-69
2022/05/30 05:06:26;;;;;;;6.38;1.20;;;;;;;;;;4938453;29;20043;-69
2022/05/30 05:08:55;;;;;;;4.55;1.20;;;;;;;;;;4938014;29;20128;-69
2022/05/30 05:11:23;;;;;;;4.07;1.00;;;;;;;;;;4938091;29;20075;-69
2022/05/30 05:13:49;;;;;;;4.35;1.08;;;;;;;;;;4937220;29;20134;-69
2022/05/30 05:16:16;;;;;;;6.57;1.65;;;;;;;;;;4938147;29;20047;-69
2022/05/30 05:18:42;;;;;;;5.30;1.15;;;;;;;;;;4937851;29;20062;-69
2022/05/30 05:21:08;;;;;;;6.57;1.10;;;;;;;;;;4938276;29;20044;-69
2022/05/30 05:23:35;;;;;;;1.95;1.02;;;;;;;;;;4937507;29;20044;-69
2022/05/30 05:26:06;;;;;;;3.58;1.08;;;;;;;;;;4925528;29;20040;-69
2022/05/30 05:28:32;;;;;;;2.67;1.13;;;;;;;;;;4918865;29;20373;-69
2022/05/30 05:30:58;;;;;;;3.55;1.00;;;;;;;;;;4919038;29;20039;-69
2022/05/30 05:33:25;;;;;;;2.47;1.02;;;;;;;;;;4918771;29;20484;-69
2022/05/30 05:35:51;;;;;;;1.30;1.17;;;;;;;;;;4918964;29;20041;-71
2022/05/30 05:38:17;;;;;;;3.97;1.17;;;;;;;;;;4918393;29;20476;-72
2022/05/30 05:40:44;;;;;;;2.97;1.20;;;;;;;;;;4918212;29;20051;-71
2022/05/30 05:43:10;;;;;;;1.30;1.20;;;;;;;;;;4918121;29;20048;-72
2022/05/30 05:45:37;;;;;;;5.30;1.42;;;;;;;;;;4918147;29;20040;-72
2022/05/30 05:48:04;;;;;;;1.90;1.25;;;;;;;;;;4917718;29;20406;-72
2022/05/30 05:50:30;;;;;;;3.90;1.33;;;;;;;;;;4918457;29;20040;-72
2022/05/30 05:52:56;;;;;;;2.95;1.10;;;;;;;;;;4918401;29;20051;-72
2022/05/30 05:55:23;;;;;;;4.00;1.30;;;;;;;;;;4918703;29;20036;-72
2022/05/30 05:57:50;;;;;;;3.33;1.05;;;;;;;;;;4918045;29;20075;-72
2022/05/30 06:00:17;;;;;;;5.63;1.30;;;;;;;;;;4918591;29;20044;-72
2022/05/30 06:02:43;;;;;;;1.80;1.08;;;;;;;;;;4918482;29;20495;-72
2022/05/30 06:05:10;;;;;;;1.83;1.00;;;;;;;;;;4918328;29;20071;-72
2022/05/30 06:07:37;;;;;;;8.90;1.25;;;;;;;;;;4918844;29;20082;-72
2022/05/30 06:10:04;;;;;;;2.03;1.10;;;;;;;;;;4918554;29;20048;-72
2022/05/30 06:12:31;;;;;;;3.95;1.40;;;;;;;;;;4918262;29;20100;-72
2022/05/30 06:14:58;;;;;;;1.70;0.80;;;;;;;;;;4918759;29;20100;-72
2022/05/30 06:17:24;;;;;;;5.13;0.90;;;;;;;;;;4918245;29;20055;-72
2022/05/30 06:19:50;;;;;;;2.63;0.98;;;;;;;;;;4917969;29;20461;-72
2022/05/30 06:22:16;;;;;;;2.33;0.90;;;;;;;;;;4917905;29;20530;-72
2022/05/30 06:24:42;;;;;;;4.68;1.10;;;;;;;;;;4918014;29;20197;-72
2022/05/30 06:27:10;;;;;;;1.92;1.05;;;;;;;;;;4917870;29;20516;-72
2022/05/30 06:29:36;;;;;;;2.05;1.10;;;;;;;;;;4918203;29;20056;-72
2022/05/30 06:32:04;;;;;;;1.80;0.98;;;;;;;;;;4917835;29;20628;-72
2022/05/30 06:34:31;;;;;;;3.03;1.00;;;;;;;;;;4919205;29;20048;-72
2022/05/30 06:36:57;;;;;;;2.63;1.17;;;;;;;;;;4921856;29;20040;-72
2022/05/30 06:39:23;;;;;;;3.60;1.17;;;;;;;;;;4921817;29;20131;-72
2022/05/30 06:41:49;;;;;;;9.52;2.03;;;;;;;;;;4921797;29;20044;-72
2022/05/30 06:44:15;;;;;;;14.52;2.30;;;;;;;;;;4921769;29;20048;-72
2022/05/30 06:46:41;;;;;;;1.95;0.90;;;;;;;;;;4921458;29;20504;-72
2022/05/30 06:49:08;;;;;;;4.38;1.30;;;;;;;;;;4921627;29;20052;-71
2022/05/30 06:51:35;;;;;;;4.50;1.40;;;;;;;;;;4921632;29;20044;-72
2022/05/30 06:54:01;;;;;;;11.32;2.00;;;;;;;;;;4921617;29;20483;-72
2022/05/30 06:56:31;;;;;;;6.05;1.60;;;;;;;;;;4921680;29;20043;-72
2022/05/30 06:58:57;;;;;;;1.48;0.82;;;;;;;;;;4929642;29;20052;-72
2022/05/30 07:01:28;;;;;;;3.47;1.33;;;;;;;;;;4940137;29;20143;-72
2022/05/30 07:03:54;;;;;;;3.80;1.20;;;;;;;;;;4934545;29;20044;-72
2022/05/30 07:06:22;;;;;;;4.30;1.20;;;;;;;;;;4928836;29;20039;-72
2022/05/30 07:08:49;;;;;;;3.80;1.42;;;;;;;;;;4940246;29;20048;-72
2022/05/30 07:11:16;;;;;;;4.00;1.20;;;;;;;;;;4936082;29;20043;-72
2022/05/30 07:13:42;;;;;;;8.43;1.20;;;;;;;;;;4936950;29;20136;-72
2022/05/30 07:16:09;;;;;;;4.90;1.35;;;;;;;;;;4921167;29;20132;-77
2022/05/30 07:18:36;;;;;;;3.83;1.15;;;;;;;;;;4920814;29;20068;-76
2022/05/30 07:21:04;;;;;;;3.92;1.20;;;;;;;;;;4920302;29;20040;-77
2022/05/30 07:23:31;;;;;;;2.60;1.10;;;;;;;;;;4916190;29;20041;-78
2022/05/30 07:25:58;;;;;;;3.47;1.00;;;;;;;;;;4901470;29;20064;-77
2022/05/30 07:28:25;;;;;;;8.02;1.00;;;;;;;;;;4917134;29;20056;-77
2022/05/30 07:30:51;;;;;;;10.25;1.33;;;;;;;;;;4902190;29;20044;-77
2022/05/30 07:33:18;;;;;;;5.22;1.35;;;;;;;;;;4906664;29;20047;-77
2022/05/30 07:35:44;;;;;;;4.78;1.17;;;;;;;;;;4920027;29;20044;-76
2022/05/30 07:38:10;;;;;;;5.85;1.35;;;;;;;;;;4920116;29;20059;-76
2022/05/30 07:40:36;;;;;;;4.47;0.95;;;;;;;;;;4914792;29;20049;-77
2022/05/30 07:43:02;;;;;;;3.58;1.10;;;;;;;;;;4902161;29;20048;-76
2022/05/30 07:45:29;;;;;;;6.68;1.30;;;;;;;;;;4913034;29;20040;-77
2022/05/30 07:47:55;;;;;;;2.58;1.73;;;;;;;;;;4920602;29;20504;-77
2022/05/30 07:50:21;;;;;;;5.43;1.38;;;;;;;;;;4918762;29;20048;-76
2022/05/30 07:52:47;;;;;;;2.45;1.08;;;;;;;;;;4909311;29;20048;-76
2022/05/30 07:55:14;;;;;;;7.20;1.55;;;;;;;;;;4901954;29;20100;-76
2022/05/30 07:57:54;;;;;;;4.75;1.00;;;;;;;;;;4918613;29;20072;-76
2022/05/30 08:00:22;;;;;;;2.67;1.20;;;;;;;;;;4921143;29;20062;-76
2022/05/30 08:02:48;;;;;;;4.97;1.23;;;;;;;;;;4920388;29;20040;-74
2022/05/30 08:05:15;;;;;;;3.78;1.13;;;;;;;;;;4920652;29;20040;-73
2022/05/30 08:07:45;;;;;;;5.70;1.73;;;;;;;;;;4920458;29;20098;-72
2022/05/30 08:10:12;;;;;;;2.85;1.10;;;;;;;;;;4901345;29;20068;-72
2022/05/30 08:12:38;;;;;;;2.45;0.98;;;;;;;;;;4901318;29;20076;-72
2022/05/30 08:15:05;;;;;;;1.67;0.95;;;;;;;;;;4901463;29;20052;-72
2022/05/30 08:17:31;;;;;;;2.97;0.93;;;;;;;;;;4901522;29;20072;-72
2022/05/30 08:19:59;;;;;;;2.85;1.10;;;;;;;;;;4916325;29;20141;-72
2022/05/30 08:22:26;;;;;;;2.95;1.00;;;;;;;;;;4919754;29;20496;-72
2022/05/30 08:24:52;;;;;;;5.05;1.20;;;;;;;;;;4919744;29;20530;-72
2022/05/30 08:27:19;;;;;;;8.55;1.20;;;;;;;;;;4920347;29;20036;-72
2022/05/30 08:29:45;;;;;;;9.15;1.42;;;;;;;;;;4920254;29;20052;-72
2022/05/30 08:32:12;;;;;;;5.15;1.10;;;;;;;;;;4919823;29;20036;-72
2022/05/30 08:34:39;;;;;;;4.40;1.35;;;;;;;;;;4919602;29;20040;-72
2022/05/30 08:37:06;;;;;;;5.18;1.13;;;;;;;;;;4924358;29;20040;-72
2022/05/30 08:42:23;;;;;;;3.42;1.02;;;;;;;;;;4936543;29;20086;-72
2022/05/30 08:44:49;;;;;;;6.05;1.10;;;;;;;;;;4938041;29;20074;-71
2022/05/30 08:47:29;;;;;;;3.65;1.10;;;;;;;;;;4920799;29;20127;-72
2022/05/30 08:49:57;;;;;;;2.42;0.90;;;;;;;;;;4919977;29;20075;-72
2022/05/30 08:52:30;;;;;;;2.10;1.20;;;;;;;;;;4919727;29;20092;-72
2022/05/30 08:55:20;;;;;;;3.40;1.15;;;;;;;;;;4936314;29;20054;-72
2022/05/30 08:57:58;;;;;;;5.30;1.13;;;;;;;;;;4925406;29;20040;-71
2022/05/30 09:00:29;;;;;;;3.13;1.17;;;;;;;;;;4938321;29;20044;-72
2022/05/30 09:02:55;;;;;;;;;;;;;;;;;;4937095;29;20047;-72
2022/05/30 09:05:43;;;;;;;2.67;1.13;;;;;;;;;;4938104;29;19914;-71
2022/05/30 09:08:11;;;;;;;3.35;1.00;;;;;;;;;;4937368;29;20496;-73
2022/05/30 09:10:41;;;;;;;4.10;1.00;;;;;;;;;;4937804;29;20040;-73
2022/05/30 09:13:14;;;;;;;2.22;1.13;;;;;;;;;;4937751;29;20043;-73
2022/05/30 09:15:46;;;;;;;3.55;1.35;;;;;;;;;;4937852;29;20134;-74
2022/05/30 09:18:21;;;;;;;6.05;1.35;;;;;;;;;;4937429;29;20090;-73
2022/05/30 09:20:47;;;;;;;10.18;1.65;;;;;;;;;;4937789;29;20051;-73
2022/05/30 09:23:13;;;;;;;5.68;1.27;;;;;;;;;;4938196;29;20503;-73
2022/05/30 09:26:07;;;;;;;4.03;1.02;;;;;;;;;;4938334;29;20047;-73
2022/05/30 09:28:35;;;;;;;3.83;0.90;;;;;;;;;;4938053;29;20047;-73
2022/05/30 09:31:06;;;;;;;2.70;1.00;;;;;;;;;;4938090;29;20043;-73
2022/05/30 09:33:31;;;;;;;;;;;;;;;;;;4938201;29;20082;-74
2022/05/30 09:36:18;;;;;;;2.92;1.08;;;;;;;;;;4938019;29;19911;-75
2022/05/30 09:38:49;;;;;;;1.88;0.90;;;;;;;;;;4938078;29;20051;-74
2022/05/30 09:41:26;;;;;;;1.77;0.90;;;;;;;;;;4937936;29;20101;-73
2022/05/30 09:43:53;;;;;;;2.17;0.65;;;;;;;;;;4937972;29;20483;-73
2022/05/30 09:46:26;;;;;;;1.73;0.82;;;;;;;;;;4937808;29;20048;-74
2022/05/30 09:49:02;;;;;;;1.20;0.80;;;;;;;;;;4937300;29;20083;-74
2022/05/30 09:51:51;;;;;;;1.48;0.75;;;;;;;;;;4937977;29;20039;-74
2022/05/30 09:54:23;;;;;;;1.08;0.60;;;;;;;;;;4927975;29;20047;-74
2022/05/30 09:56:50;;;;;;;2.20;0.85;;;;;;;;;;4937673;29;20047;-74
2022/05/30 09:59:19;;;;;;;5.03;0.70;;;;;;;;;;4937096;29;20507;-74
2022/05/30 10:01:49;;;;;;;2.45;0.90;;;;;;;;;;4937593;29;20078;-75
2022/05/30 10:04:18;;;;;;;3.73;1.40;;;;;;;;;;4928619;29;20478;-76
2022/05/30 10:07:00;;;;;;;3.20;1.27;;;;;;;;;;4916620;29;20056;-75
2022/05/30 10:09:27;;;;;;;8.32;1.50;;;;;;;;;;4917296;29;20088;-76
2022/05/30 10:11:54;;;;;;;2.70;1.23;;;;;;;;;;4917242;29;20044;-76
2022/05/30 10:14:24;;;;;;;3.90;1.17;;;;;;;;;;4917953;29;20131;-77
2022/05/30 10:16:51;;;;;;;5.68;1.27;;;;;;;;;;4917043;29;20040;-76
2022/05/30 10:19:24;;;;;;;3.67;1.10;;;;;;;;;;4900248;29;20064;-76
2022/05/30 10:28:16;;;;;;;3.25;1.15;;;;;;;;;;4917298;29;20050;-76
2022/05/30 10:30:46;;;;;;;2.85;1.38;;;;;;;;;;4916632;29;20048;-76
2022/05/30 10:33:18;;;;;;;2.63;1.33;;;;;;;;;;4900415;29;20054;-76
2022/05/30 10:35:50;;;;;;;4.85;1.30;;;;;;;;;;4917503;29;20044;-76
2022/05/30 10:38:20;;;;;;;2.85;1.27;;;;;;;;;;4915906;29;20052;-77
2022/05/30 10:40:56;;;;;;;1.55;1.20;;;;;;;;;;4915754;29;20035;-75
2022/05/30 10:43:32;;;;;;;5.25;1.52;;;;;;;;;;4916790;29;20524;-72
2022/05/30 10:46:04;;;;;;;4.45;1.58;;;;;;;;;;4899491;29;20512;-72
2022/05/30 10:48:35;;;;;;;4.38;1.70;;;;;;;;;;4915880;29;20072;-72
2022/05/30 10:51:20;;;;;;;6.13;1.60;;;;;;;;;;4917100;29;20044;-71
2022/05/30 10:53:55;;;;;;;3.22;1.38;;;;;;;;;;4916623;29;20076;-72
2022/05/30 10:56:24;;;;;;;3.67;1.42;;;;;;;;;;4917773;29;20160;-72
2022/05/30 10:58:56;;;;;;;6.50;1.75;;;;;;;;;;4916591;29;20088;-72
2022/05/30 11:01:46;;;;;;;5.63;1.10;;;;;;;;;;4916761;29;20044;-73
2022/05/30 11:04:15;;;;;;;3.00;1.23;;;;;;;;;;4909215;29;20104;-72
2022/05/30 11:06:43;;;;;;;5.70;1.48;;;;;;;;;;4916439;29;20404;-72
2022/05/30 11:09:10;;;;;;;3.92;1.10;;;;;;;;;;4917172;29;20058;-72
2022/05/30 11:11:50;;;;;;;3.42;1.15;;;;;;;;;;4916783;29;20040;-72
2022/05/30 11:14:16;;;;;;;2.53;1.25;;;;;;;;;;4916632;29;20051;-72
2022/05/30 11:16:52;;;;;;;6.80;1.38;;;;;;;;;;4916744;29;20044;-72
2022/05/30 11:19:28;;;;;;;7.50;1.42;;;;;;;;;;4917327;29;20062;-72
2022/05/30 11:22:11;;;;;;;5.75;1.20;;;;;;;;;;4918743;29;20043;-72
2022/05/30 11:24:37;;;;;;;4.15;1.48;;;;;;;;;;4920376;29;20124;-72
2022/05/30 11:27:18;;;;;;;1.45;0.80;;;;;;;;;;4920585;29;20062;-72
2022/05/30 11:29:54;;;;;;;3.00;1.00;;;;;;;;;;4920228;29;20051;-71
2022/05/30 11:32:31;;;;;;;2.35;0.88;;;;;;;;;;4920247;29;20453;-71
2022/05/30 11:35:05;;;;;;;4.65;1.25;;;;;;;;;;4920253;29;20135;-71
2022/05/30 11:37:43;;;;;;;3.38;1.10;;;;;;;;;;4920277;29;20042;-72
2022/05/30 11:40:28;;;;;;;2.65;0.80;;;;;;;;;;4920097;29;20083;-72
2022/05/30 11:43:13;;;;;;;6.47;1.50;;;;;;;;;;4920448;29;20067;-72
2022/05/30 11:45:40;;;;;;;3.40;1.17;;;;;;;;;;4919613;29;20036;-72
2022/05/30 11:48:10;;;;;;;4.22;1.27;;;;;;;;;;4919441;29;20056;-72
2022/05/30 11:50:38;;;;;;;2.47;1.10;;;;;;;;;;4920446;29;20063;-72
2022/05/30 11:53:23;;;;;;;5.55;1.00;;;;;;;;;;4920415;29;20075;-72
2022/05/30 11:55:59;;;;;;;2.33;0.80;;;;;;;;;;4919480;29;20044;-72
2022/05/30 11:58:34;;;;;;;1.70;0.90;;;;;;;;;;4919649;29;20047;-72
2022/05/30 12:01:00;;;;;;;2.28;1.00;;;;;;;;;;4919392;29;20044;-72
2022/05/30 12:03:32;;;;;;;2.85;1.30;;;;;;;;;;4919424;29;20048;-72
2022/05/30 12:06:06;;;;;;;3.13;0.95;;;;;;;;;;4920312;29;20040;-72
2022/05/30 12:08:44;;;;;;;2.53;1.05;;;;;;;;;;4920065;29;20496;-72
2022/05/30 12:11:22;;;;;;;1.67;1.00;;;;;;;;;;4919453;29;20059;-72
2022/05/30 12:13:55;;;;;;;2.47;1.10;;;;;;;;;;4919640;29;20043;-72
2022/05/30 12:16:27;;;;;;;4.50;1.10;;;;;;;;;;4919197;29;20040;-72
2022/05/30 12:24:42;;;;;;;4.05;1.10;;;;;;;;;;4919301;29;20047;-73
2022/05/30 12:27:26;;;;;;;4.15;1.23;;;;;;;;;;4918782;29;20040;-72
2022/05/30 12:29:53;;;;;;;4.43;1.45;;;;;;;;;;4919127;29;20059;-73
2022/05/30 12:32:19;;;;;;;3.90;1.05;;;;;;;;;;4917907;29;20048;-72
2022/05/30 12:35:01;;;;;;;4.75;1.20;;;;;;;;;;4919383;29;20067;-72
2022/05/30 12:37:45;;;;;;;3.15;1.00;;;;;;;;;;4919769;29;20044;-73
2022/05/30 12:40:12;;;;;;;2.67;1.02;;;;;;;;;;4920213;29;20135;-72
2022/05/30 12:42:43;;;;;;;2.67;1.00;;;;;;;;;;4919618;29;20040;-72
2022/05/30 12:45:21;;;;;;;4.70;0.82;;;;;;;;;;4919074;29;20040;-72
2022/05/30 12:47:50;;;;;;;4.35;1.20;;;;;;;;;;4919088;29;20040;-73
2022/05/30 12:50:26;;;;;;;1.25;0.90;;;;;;;;;;4919574;29;20078;-73
2022/05/30 12:52:57;;;;;;;2.28;1.00;;;;;;;;;;4919539;29;20040;-72
2022/05/30 12:55:33;;;;;;;3.17;1.20;;;;;;;;;;4919806;29;20527;-73
2022/05/30 12:58:00;;;;;;;2.35;1.20;;;;;;;;;;4919031;29;20040;-73
2022/05/30 13:00:55;;;;;;;3.10;1.02;;;;;;;;;;4919082;29;20048;-73
2022/05/30 13:03:32;;;;;;;2.80;0.93;;;;;;;;;;4899351;29;20055;-73
2022/05/30 13:06:05;;;;;;;4.57;1.10;;;;;;;;;;4916973;29;20118;-73
2022/05/30 13:09:04;;;;;;;4.10;1.50;;;;;;;;;;4919461;29;20091;-73
2022/05/30 13:11:33;;;;;;;2.80;1.13;;;;;;;;;;4877462;29;20119;-73
2022/05/30 13:14:08;;;;;;;2.65;0.90;;;;;;;;;;4918773;29;20408;-73
2022/05/30 13:16:41;;;;;;;2.53;1.02;;;;;;;;;;4919166;29;20048;-73
2022/05/30 13:19:10;;;;;;;1.05;0.90;;;;;;;;;;4918912;29;20067;-73
2022/05/30 13:21:39;;;;;;;4.47;1.20;;;;;;;;;;4919334;29;20047;-73
2022/05/30 13:24:25;;;;;;;2.17;0.90;;;;;;;;;;4919145;29;20119;-73
2022/05/30 13:26:51;;;;;;;4.30;1.10;;;;;;;;;;4919979;29;20063;-73
2022/05/30 13:29:17;;;;;;;4.10;1.00;;;;;;;;;;4919013;29;20100;-73
2022/05/30 13:31:49;;;;;;;2.42;0.80;;;;;;;;;;4918552;29;20040;-72
2022/05/30 13:34:16;;;;;;;2.72;0.93;;;;;;;;;;4918939;29;20094;-73
2022/05/30 13:36:42;;;;;;;1.55;0.85;;;;;;;;;;4918588;29;20040;-73
2022/05/30 13:39:11;;;;;;;3.08;0.90;;;;;;;;;;4918744;29;20056;-73
2022/05/30 13:41:41;;;;;;;2.78;1.20;;;;;;;;;;4916056;29;20273;-73
2022/05/30 13:44:12;;;;;;;4.63;1.03;;;;;;;;;;4916819;29;20092;-73
2022/05/30 13:46:49;;;;;;;3.97;1.17;;;;;;;;;;4918860;29;20106;-73
2022/05/30 13:49:29;;;;;;;4.60;1.02;;;;;;;;;;4918423;29;20052;-73
2022/05/30 13:51:55;;;;;;;2.58;1.10;;;;;;;;;;4918288;29;20044;-73
2022/05/30 13:54:22;;;;;;;2.42;1.00;;;;;;;;;;4918583;29;20087;-73
2022/05/30 13:56:52;;;;;;;3.58;1.00;;;;;;;;;;4918557;29;20043;-73
2022/05/30 13:59:28;;;;;;;2.15;0.90;;;;;;;;;;4918385;29;20127;-73
2022/05/30 14:01:59;;;;;;;4.97;1.10;;;;;;;;;;4900423;29;20396;-73
2022/05/30 14:04:33;;;;;;;4.90;1.08;;;;;;;;;;4916360;29;20119;-73
2022/05/30 14:06:59;;;;;;;4.25;1.00;;;;;;;;;;4900323;29;20118;-73
2022/05/30 14:09:31;;;;;;;3.35;1.02;;;;;;;;;;4932301;29;20071;-73
2022/05/30 14:12:04;;;;;;;2.78;0.90;;;;;;;;;;4919056;29;20036;-73
2022/05/30 14:14:43;;;;;;;4.55;1.00;;;;;;;;;;4937431;29;20126;-73
2022/05/30 14:17:10;;;;;;;2.30;1.10;;;;;;;;;;4927256;29;20047;-72
2022/05/30 14:19:40;;;;;;;3.00;1.00;;;;;;;;;;4935715;29;20070;-72
2022/05/30 14:22:25;;;;;;;2.40;0.93;;;;;;;;;;4932571;29;20047;-73
2022/05/30 14:25:02;;;;;;;1.98;1.05;;;;;;;;;;4927776;29;20055;-73
2022/05/30 14:27:30;;;;;;;3.55;1.08;;;;;;;;;;4918142;29;20048;-72
2022/05/30 14:30:01;;;;;;;1.77;1.02;;;;;;;;;;4917595;29;20055;-73
2022/05/30 14:32:29;;;;;;;4.22;1.15;;;;;;;;;;4923323;29;20590;-73
2022/05/30 14:35:04;;;;;;;2.47;0.98;;;;;;;;;;4927409;29;20127;-73
2022/05/30 14:37:34;;;;;;;1.42;1.08;;;;;;;;;;4936655;29;20043;-73
2022/05/30 14:40:00;;;;;;;;;;;;;;;;;;4936919;29;20168;-73
2022/05/30 14:42:31;;;;;;;1.65;0.88;;;;;;;;;;4935909;29;19914;-74
2022/05/30 14:45:03;;;;;;;2.63;1.00;;;;;;;;;;4936522;29;20507;-73
2022/05/30 14:47:31;;;;;;;2.15;1.30;;;;;;;;;;4935877;29;20091;-73
2022/05/30 14:50:13;;;;;;;1.52;0.90;;;;;;;;;;4928315;29;20074;-74
2022/05/30 14:52:46;;;;;;;1.67;0.95;;;;;;;;;;4929122;29;20490;-73
2022/05/30 14:55:25;;;;;;;2.17;0.95;;;;;;;;;;4924208;29;20040;-74
2022/05/30 14:57:52;;;;;;;4.72;1.20;;;;;;;;;;4924071;29;20040;-74
2022/05/30 15:00:38;;;;;;;1.42;1.00;;;;;;;;;;4935593;29;20075;-73
2022/05/30 15:05:50;;;;;;;2.08;1.02;;;;;;;;;;4920947;29;20039;-73
2022/05/30 15:08:16;;;;;;;2.38;0.90;;;;;;;;;;4920746;29;20062;-72
2022/05/30 15:10:43;;;;;;;1.80;0.85;;;;;;;;;;4925427;29;20123;-73
2022/05/30 15:13:10;;;;;;;2.70;1.00;;;;;;;;;;4939828;29;20039;-72
2022/05/30 15:15:36;;;;;;;1.40;0.98;;;;;;;;;;4911100;29;20048;-72
2022/05/30 15:18:02;;;;;;;1.25;0.95;;;;;;;;;;4918716;29;20036;-72
2022/05/30 15:20:28;;;;;;;2.40;1.10;;;;;;;;;;4919638;29;20052;-72